Time;durP1;ratioP1;P1;durP2;ratioP2;P2;SDS_P1;SDS_P2;PMS_P1;PMS_P2;Temp;Humidity;BMP_temperature;BMP_pressure;BME280_temperature;BME280_humidity;BME280_pressure;Samples;Min_cycle;Max_cycle;Signal;HPM_P1;HPM_P2
2021/03/26 00:04:50;;;;;;;167.38;78.40;;;;;;;3.93;58.03;99565.67;248676;1159;114719;-67
2021/03/26 00:09:52;;;;;;;158.65;78.73;;;;;;;3.89;58.24;99573.70;248808;1154;114727;-65
2021/03/26 00:14:55;;;;;;;164.40;79.55;;;;;;;3.87;58.49;99572.86;248766;1153;114862;-65
2021/03/26 00:20:00;;;;;;;158.25;78.93;;;;;;;3.81;58.21;99576.54;248698;1154;116065;-69
2021/03/26 00:25:05;;;;;;;163.20;79.83;;;;;;;3.74;58.36;99574.97;248803;1153;115041;-70
2021/03/26 00:30:10;;;;;;;177.40;83.48;;;;;;;3.68;58.37;99575.98;248594;1153;114773;-67
2021/03/26 00:35:13;;;;;;;;;;;;;;;3.65;58.28;99564.67;248795;1159;114821;-66
2021/03/26 00:40:34;;;;;;;178.25;84.25;;;;;;;3.66;58.92;99569.02;248742;1158;101342;-72
2021/03/26 00:45:39;;;;;;;166.08;83.45;;;;;;;3.72;58.88;99571.50;248835;1154;114964;-64
2021/03/26 00:50:48;;;;;;;165.38;84.78;;;;;;;3.75;58.93;99568.80;248761;1153;114974;-67
2021/03/26 00:55:52;;;;;;;162.03;79.08;;;;;;;3.71;59.04;99572.41;248552;1161;115823;-72
2021/03/26 01:00:57;;;;;;;154.98;77.30;;;;;;;3.60;58.55;99556.91;248496;1152;114935;-76
2021/03/26 01:06:05;;;;;;;160.43;79.38;;;;;;;3.55;59.09;99557.00;248630;1154;114946;-68
2021/03/26 01:11:12;;;;;;;166.10;81.83;;;;;;;3.54;58.73;99559.68;248711;1153;114715;-67
2021/03/26 01:16:17;;;;;;;184.90;85.95;;;;;;;3.55;59.29;99558.77;248708;1154;114670;-69
2021/03/26 01:21:28;;;;;;;172.55;80.75;;;;;;;3.49;59.03;99567.67;248562;1161;114791;-72
2021/03/26 01:26:40;;;;;;;172.48;80.30;;;;;;;3.48;59.09;99552.80;248703;1154;115445;-73
2021/03/26 01:31:57;;;;;;;160.60;78.88;;;;;;;3.43;59.04;99557.32;248622;1153;115050;-68
2021/03/26 01:37:00;;;;;;;160.23;79.78;;;;;;;3.40;59.25;99553.91;248637;1153;115060;-69
2021/03/26 01:42:27;;;;;;;158.05;78.38;;;;;;;3.39;59.47;99553.02;248696;1154;115247;-68
2021/03/26 01:47:30;;;;;;;;;;;;;;;3.34;59.38;99554.91;248544;1162;114985;-67
2021/03/26 01:52:35;;;;;;;160.13;80.03;;;;;;;3.32;59.36;99551.44;248693;1154;100895;-70
2021/03/26 01:57:38;;;;;;;182.93;83.25;;;;;;;3.31;59.91;99561.09;248612;1159;114963;-68
2021/03/26 02:03:27;;;;;;;162.40;80.88;;;;;;;3.32;59.58;99560.19;248614;1154;117263;-67
2021/03/26 02:08:36;;;;;;;162.48;81.75;;;;;;;3.41;59.64;99564.38;248552;1155;115237;-68
2021/03/26 02:13:46;;;;;;;162.73;80.18;;;;;;;3.46;59.83;99574.77;248596;1161;114360;-70
2021/03/26 02:19:00;;;;;;;156.10;76.20;;;;;;;3.61;60.63;99576.18;248638;1154;114603;-68
2021/03/26 02:24:06;;;;;;;109.63;53.08;;;;;;;3.82;60.67;99567.73;248747;1152;114844;-69
2021/03/26 02:29:25;;;;;;;144.93;72.57;;;;;;;3.97;60.68;99576.98;247059;1162;114997;-72
2021/03/26 02:34:37;;;;;;;152.85;72.50;;;;;;;4.07;60.61;99565.30;248603;1153;115191;-71
2021/03/26 02:39:46;;;;;;;142.23;71.18;;;;;;;4.13;60.32;99566.91;248522;1161;114709;-70
2021/03/26 02:45:05;;;;;;;139.93;69.38;;;;;;;4.13;59.70;99572.17;248667;1154;114664;-71
2021/03/26 02:50:30;;;;;;;148.15;73.93;;;;;;;3.95;59.38;99574.41;248668;1154;114750;-70
2021/03/26 02:55:46;;;;;;;138.65;72.08;;;;;;;3.72;59.27;99579.40;248507;1154;114548;-71
2021/03/26 03:01:05;;;;;;;145.20;74.00;;;;;;;3.56;59.51;99578.91;248833;1153;114707;-72
2021/03/26 03:06:18;;;;;;;161.70;80.78;;;;;;;3.47;59.65;99584.42;248592;1154;115170;-69
2021/03/26 03:12:05;;;;;;;137.53;70.78;;;;;;;3.34;59.37;99581.21;248738;1154;114913;-69
2021/03/26 03:17:23;;;;;;;151.85;76.78;;;;;;;3.25;59.87;99587.55;248839;1155;114933;-70
2021/03/26 03:22:39;;;;;;;165.18;79.98;;;;;;;3.21;59.99;99590.29;248715;1154;114767;-71
2021/03/26 03:27:52;;;;;;;153.10;76.20;;;;;;;3.19;60.12;99592.94;248506;1154;114764;-69
2021/03/26 03:33:10;;;;;;;151.65;75.00;;;;;;;3.17;60.06;99593.89;248563;1162;114784;-67
2021/03/26 03:38:38;;;;;;;148.38;70.08;;;;;;;3.11;60.09;99599.29;248724;1155;115216;-70
2021/03/26 03:44:12;;;;;;;148.90;74.25;;;;;;;3.05;60.25;99588.00;248365;1153;114772;-69
2021/03/26 03:49:32;;;;;;;162.63;77.73;;;;;;;3.08;60.45;99597.59;248583;1154;115032;-67
2021/03/26 03:54:40;;;;;;;147.10;74.53;;;;;;;3.13;60.50;99602.77;248787;1154;114674;-71
2021/03/26 03:59:56;;;;;;;165.28;78.80;;;;;;;3.23;61.32;99596.39;248518;1162;115371;-72
2021/03/26 04:05:16;;;;;;;154.78;77.33;;;;;;;3.32;60.85;99594.38;248773;1153;114761;-73
2021/03/26 04:10:22;;;;;;;155.48;78.55;;;;;;;3.45;61.22;99594.10;248701;1153;114867;-76
2021/03/26 04:15:34;;;;;;;156.25;80.58;;;;;;;3.56;61.18;99606.08;248520;1153;114957;-72
2021/03/26 04:20:52;;;;;;;152.20;76.60;;;;;;;3.62;61.41;99606.84;248614;1155;114705;-73
2021/03/26 04:26:18;;;;;;;153.68;75.58;;;;;;;3.66;61.16;99597.97;248620;1154;114624;-70
2021/03/26 04:32:10;;;;;;;149.33;71.17;;;;;;;3.65;61.17;99605.00;248527;1162;206837;-71
2021/03/26 04:37:17;;;;;;;150.00;70.30;;;;;;;3.68;61.10;99609.34;248522;1154;114842;-70
2021/03/26 04:42:26;;;;;;;146.90;73.90;;;;;;;3.69;61.20;99604.02;248684;1154;114971;-70
2021/03/26 04:47:40;;;;;;;149.63;74.90;;;;;;;3.72;60.61;99616.25;248164;1161;114802;-78
2021/03/26 04:53:23;;;;;;;140.45;71.18;;;;;;;3.62;60.74;99612.11;248558;1154;114919;-73
2021/03/26 04:58:33;;;;;;;157.88;79.23;;;;;;;3.51;60.60;99621.13;248755;1153;115011;-72
2021/03/26 05:04:24;;;;;;;147.15;73.85;;;;;;;3.46;60.48;99622.99;248620;1154;115222;-67
2021/03/26 05:09:33;;;;;;;150.30;71.20;;;;;;;3.46;60.72;99617.73;248459;1154;114674;-72
2021/03/26 05:15:06;;;;;;;144.85;73.70;;;;;;;3.47;60.62;99626.52;248764;1154;114633;-74
2021/03/26 05:20:13;;;;;;;158.30;79.60;;;;;;;3.55;61.29;99625.41;247412;1154;115594;-72
2021/03/26 05:25:44;;;;;;;163.80;84.58;;;;;;;3.69;61.72;99625.08;248744;1153;114597;-69
2021/03/26 05:30:51;;;;;;;160.73;82.68;;;;;;;3.84;61.89;99636.12;248801;1154;114925;-68
2021/03/26 05:36:21;;;;;;;147.45;73.35;;;;;;;3.95;61.41;99631.47;248547;1153;114683;-69
2021/03/26 05:42:08;;;;;;;167.88;83.55;;;;;;;3.98;61.43;99634.03;248705;1154;114786;-68
2021/03/26 05:47:53;;;;;;;158.05;77.83;;;;;;;4.06;61.33;99637.31;248453;1156;114715;-68
2021/03/26 05:53:19;;;;;;;150.88;80.65;;;;;;;4.16;61.63;99645.84;248405;1156;114800;-73
2021/03/26 05:59:20;;;;;;;171.00;84.35;;;;;;;4.30;61.85;99651.61;248554;1154;117576;-70
2021/03/26 06:05:28;;;;;;;188.35;91.45;;;;;;;4.42;61.86;99640.75;248473;1154;114637;-71
2021/03/26 06:11:37;;;;;;;189.15;90.40;;;;;;;4.57;62.03;99654.41;247791;1154;114868;-72
2021/03/26 06:17:40;;;;;;;218.73;101.87;;;;;;;4.72;61.89;99653.96;248162;1164;115223;-69
2021/03/26 06:23:42;;;;;;;205.33;105.70;;;;;;;4.94;61.51;99654.23;247969;1165;116065;-72
2021/03/26 06:29:36;;;;;;;186.05;97.15;;;;;;;5.16;62.21;99657.08;248575;1154;115183;-69
2021/03/26 06:35:11;;;;;;;194.15;95.43;;;;;;;5.32;61.78;99658.34;248549;1155;114973;-70
2021/03/26 06:40:34;;;;;;;180.83;92.43;;;;;;;5.45;61.71;99657.06;248725;1154;114920;-70
2021/03/26 06:45:50;;;;;;;177.93;92.90;;;;;;;5.55;61.35;99659.42;248442;1155;114521;-71
2021/03/26 06:51:18;;;;;;;175.43;91.78;;;;;;;5.66;61.12;99658.16;247172;1153;114706;-69
2021/03/26 06:56:24;;;;;;;175.75;93.00;;;;;;;5.82;61.65;99661.17;248604;1154;115297;-70
2021/03/26 07:02:05;;;;;;;175.48;90.95;;;;;;;6.02;61.10;99660.55;248075;1153;114574;-73
2021/03/26 07:07:46;;;;;;;177.00;90.05;;;;;;;6.25;61.91;99665.06;248582;1154;115213;-73
2021/03/26 07:13:21;;;;;;;171.83;90.28;;;;;;;6.47;60.96;99659.02;247430;1159;114884;-72
2021/03/26 07:18:52;;;;;;;;;;;;;;;;;;;;;
2021/03/26 07:24:30;;;;;;;176.33;86.75;;;;;;;6.84;61.00;99666.50;248487;1161;114836;-71
2021/03/26 07:36:23;;;;;;;154.45;80.33;;;;;;;7.18;60.38;99673.17;248457;1155;114746;-69
2021/03/26 07:41:37;;;;;;;139.30;74.55;;;;;;;7.38;60.69;99683.87;248623;1161;114434;-68
2021/03/26 07:47:22;;;;;;;136.73;72.33;;;;;;;7.58;60.22;99681.30;248733;1154;114813;-70
2021/03/26 07:52:43;;;;;;;140.60;69.60;;;;;;;7.81;60.44;99687.45;248661;1154;114762;-70
2021/03/26 07:57:57;;;;;;;127.08;67.73;;;;;;;8.00;59.56;99688.44;248727;1153;114838;-71
2021/03/26 08:03:31;;;;;;;131.30;68.88;;;;;;;8.20;59.76;99697.36;248483;1153;114724;-68
2021/03/26 08:09:18;;;;;;;116.05;62.68;;;;;;;8.40;59.28;99689.47;248494;1154;114716;-69
2021/03/26 08:14:34;;;;;;;120.40;65.03;;;;;;;8.58;59.66;99689.59;248488;1154;115011;-68
2021/03/26 08:19:48;;;;;;;116.40;65.30;;;;;;;8.78;59.15;99699.34;248597;1153;114791;-65
2021/03/26 08:25:28;;;;;;;111.03;62.45;;;;;;;8.91;58.26;99697.88;248630;1154;114654;-68
2021/03/26 08:30:40;;;;;;;118.08;62.70;;;;;;;9.10;58.93;99693.44;248563;1154;114449;-67
2021/03/26 08:36:04;;;;;;;114.28;62.95;;;;;;;9.36;58.58;99694.91;248744;1159;115444;-67
2021/03/26 08:41:29;;;;;;;112.48;60.85;;;;;;;9.58;58.28;99697.44;248543;1154;114737;-68
2021/03/26 08:46:38;;;;;;;110.58;58.90;;;;;;;9.76;57.90;99698.34;248745;1153;114801;-68
2021/03/26 08:52:08;;;;;;;116.40;62.53;;;;;;;9.92;58.44;99703.80;248609;1154;115531;-68
2021/03/26 08:57:48;;;;;;;119.58;62.18;;;;;;;10.09;57.52;99703.82;248481;1152;114805;-68
2021/03/26 09:03:08;;;;;;;119.65;61.10;;;;;;;10.33;57.52;99692.93;248728;1154;115562;-68
2021/03/26 09:09:05;;;;;;;103.23;57.20;;;;;;;10.53;56.85;99695.44;248508;1161;114916;-68
2021/03/26 09:14:29;;;;;;;110.40;61.00;;;;;;;10.73;56.98;99702.37;248639;1154;115099;-67
2021/03/26 09:19:48;;;;;;;105.85;59.78;;;;;;;10.93;56.60;99703.13;248748;1154;115503;-68
2021/03/26 09:25:23;;;;;;;114.50;61.33;;;;;;;11.15;56.49;99700.20;248660;1154;114539;-68
2021/03/26 09:30:31;;;;;;;105.35;61.25;;;;;;;11.34;56.04;99699.13;248694;1153;115657;-68
2021/03/26 09:35:37;;;;;;;112.58;58.83;;;;;;;11.48;56.05;99695.70;248620;1154;114899;-67
2021/03/26 09:40:56;;;;;;;111.53;62.38;;;;;;;11.67;55.84;99695.52;248529;1154;114939;-68
2021/03/26 09:45:59;;;;;;;104.53;59.78;;;;;;;11.88;55.88;99698.81;248521;1154;114800;-69
2021/03/26 09:51:01;;;;;;;102.60;59.90;;;;;;;12.06;55.40;99687.11;248585;1154;114740;-68
2021/03/26 09:56:29;;;;;;;105.50;61.75;;;;;;;12.24;55.60;99681.66;248577;1154;115259;-68
2021/03/26 10:01:39;;;;;;;104.87;61.20;;;;;;;12.40;55.70;99676.25;248711;1153;115133;-68
2021/03/26 10:06:56;;;;;;;105.18;61.43;;;;;;;12.62;55.40;99673.17;248591;1155;115609;-68
2021/03/26 10:12:06;;;;;;;100.80;59.80;;;;;;;12.85;55.01;99661.09;248318;1155;115142;-69
2021/03/26 10:17:12;;;;;;;96.25;57.85;;;;;;;13.10;54.33;99668.45;248551;1154;114955;-67
2021/03/26 10:22:47;;;;;;;103.88;59.65;;;;;;;13.32;54.28;99660.84;248537;1159;115031;-67
2021/03/26 10:27:59;;;;;;;93.20;56.50;;;;;;;13.56;53.90;99663.77;247135;1161;115080;-72
2021/03/26 10:33:08;;;;;;;90.40;54.18;;;;;;;13.61;53.11;99655.43;248587;1154;115522;-70
2021/03/26 10:38:28;;;;;;;88.50;54.50;;;;;;;13.75;53.00;99652.70;248295;1154;115053;-69
2021/03/26 10:43:57;;;;;;;87.30;54.00;;;;;;;13.99;52.93;99652.06;248537;1154;114781;-68
2021/03/26 10:49:09;;;;;;;86.80;53.28;;;;;;;14.16;53.10;99647.33;248609;1154;114502;-69
2021/03/26 10:54:28;;;;;;;83.88;50.73;;;;;;;14.38;52.89;99640.51;248530;1154;115382;-69
2021/03/26 11:00:03;;;;;;;80.43;50.73;;;;;;;14.61;52.13;99638.97;248539;1154;115084;-70
2021/03/26 11:05:27;;;;;;;85.18;51.30;;;;;;;14.85;51.55;99639.94;248557;1154;114942;-68
2021/03/26 11:10:45;;;;;;;74.40;48.03;;;;;;;15.02;50.83;99638.75;248700;1154;115464;-69
2021/03/26 11:15:55;;;;;;;70.93;45.35;;;;;;;15.12;50.77;99631.77;248492;1161;115479;-69
2021/03/26 11:20:59;;;;;;;47.55;31.88;;;;;;;15.29;50.04;99630.56;248551;1155;114478;-69
2021/03/26 11:26:04;;;;;;;74.18;45.75;;;;;;;15.41;49.00;99619.91;248608;1154;116755;-70
2021/03/26 11:31:30;;;;;;;;;;;;;;;15.54;49.45;99616.21;246552;1161;115030;-71
2021/03/26 11:36:48;;;;;;;75.95;45.95;;;;;;;15.62;48.85;99604.91;248848;1153;101876;-69
2021/03/26 11:42:11;;;;;;;76.43;47.38;;;;;;;15.74;48.90;99611.24;248514;1161;114645;-68
2021/03/26 11:47:30;;;;;;;87.40;53.28;;;;;;;15.98;49.02;99598.66;248555;1161;114845;-70
2021/03/26 11:52:43;;;;;;;82.88;48.50;;;;;;;16.20;49.02;99595.23;248545;1154;114987;-70
2021/03/26 11:57:51;;;;;;;79.15;49.70;;;;;;;16.37;48.84;99593.05;248556;1154;114886;-69
2021/03/26 12:03:11;;;;;;;77.43;46.73;;;;;;;16.47;48.68;99584.19;248800;1153;114874;-70
2021/03/26 12:09:00;;;;;;;75.93;46.05;;;;;;;16.68;48.13;99575.42;248559;1161;115292;-70
2021/03/26 12:14:05;;;;;;;65.93;43.75;;;;;;;16.82;47.24;99579.73;248739;1153;114897;-71
2021/03/26 12:19:18;;;;;;;72.53;43.88;;;;;;;17.00;47.24;99571.05;248795;1155;114674;-71
2021/03/26 12:24:35;;;;;;;79.88;47.85;;;;;;;17.20;47.36;99566.75;248740;1154;115039;-68
2021/03/26 12:29:57;;;;;;;71.10;44.75;;;;;;;17.67;47.80;99559.31;248915;1152;115139;-67
2021/03/26 12:35:17;;;;;;;81.03;50.03;;;;;;;18.16;47.95;99552.50;248867;1153;115526;-68
2021/03/26 12:40:28;;;;;;;76.75;48.60;;;;;;;18.70;47.11;99552.41;248817;1159;114924;-68
2021/03/26 12:45:41;;;;;;;73.10;46.60;;;;;;;19.10;46.90;99538.98;248678;1154;114942;-68
2021/03/26 12:51:23;;;;;;;76.10;46.35;;;;;;;19.29;45.92;99540.87;248730;1154;115153;-67
2021/03/26 12:56:40;;;;;;;70.43;43.70;;;;;;;19.30;45.38;99526.41;248847;1154;115014;-67
2021/03/26 13:02:08;;;;;;;59.90;40.98;;;;;;;19.11;44.41;99532.59;248506;1161;115109;-67
2021/03/26 13:07:20;;;;;;;68.53;41.28;;;;;;;19.00;44.22;99521.92;248706;1154;115204;-60
2021/03/26 13:12:32;;;;;;;72.90;41.70;;;;;;;19.19;44.39;99507.61;248645;1153;115053;-61
2021/03/26 13:17:46;;;;;;;70.05;41.30;;;;;;;19.43;44.62;99502.70;248699;1153;115268;-72
2021/03/26 13:23:02;;;;;;;71.38;43.08;;;;;;;19.60;44.01;99507.41;248490;1153;115989;-71
2021/03/26 13:28:45;;;;;;;70.63;42.83;;;;;;;19.76;43.91;99500.61;248526;1154;115266;-71
2021/03/26 13:33:53;;;;;;;58.33;36.88;;;;;;;19.70;42.67;99501.17;248662;1154;115265;-69
2021/03/26 13:39:24;;;;;;;;;;;;;;;19.62;42.40;99508.10;248710;1153;116720;-69
2021/03/26 13:44:42;;;;;;;56.80;36.53;;;;;;;19.51;42.79;99502.00;248728;1152;101447;-69
2021/03/26 13:50:17;;;;;;;61.03;39.08;;;;;;;19.35;42.45;99497.98;248580;1154;115326;-70
2021/03/26 13:55:46;;;;;;;65.83;39.60;;;;;;;19.43;42.90;99497.31;248642;1154;115288;-72
2021/03/26 14:01:01;;;;;;;69.65;40.63;;;;;;;19.33;42.82;99491.89;248763;1153;114934;-71
2021/03/26 14:06:32;;;;;;;69.33;40.40;;;;;;;19.30;43.06;99483.22;248577;1154;115380;-71
2021/03/26 14:12:10;;;;;;;56.88;35.35;;;;;;;19.21;42.46;99486.75;248378;1154;115020;-71
2021/03/26 14:17:40;;;;;;;49.98;32.73;;;;;;;19.00;42.58;99468.81;248466;1155;115055;-71
2021/03/26 14:23:03;;;;;;;57.83;38.45;;;;;;;18.75;42.38;99474.69;248645;1159;115012;-71
2021/03/26 14:28:40;;;;;;;63.03;39.70;;;;;;;18.54;41.97;99470.17;248494;1154;115236;-71
2021/03/26 14:34:06;;;;;;;71.10;36.73;;;;;;;18.35;42.01;99464.71;248519;1154;115985;-70
2021/03/26 14:39:29;;;;;;;58.98;38.05;;;;;;;18.02;41.56;99460.41;248424;1153;115846;-71
2021/03/26 14:44:50;;;;;;;58.15;37.30;;;;;;;17.72;41.18;99462.85;248753;1153;115259;-70
2021/03/26 14:50:04;;;;;;;54.63;36.47;;;;;;;17.38;41.18;99461.30;248812;1153;115113;-72
2021/03/26 14:55:19;;;;;;;56.90;36.65;;;;;;;17.13;41.66;99457.96;248563;1154;115727;-71
2021/03/26 15:01:00;;;;;;;57.40;37.60;;;;;;;16.98;41.76;99445.77;248589;1153;115014;-71
2021/03/26 15:06:20;;;;;;;60.30;36.18;;;;;;;16.83;41.85;99447.03;248592;1155;115394;-71
2021/03/26 15:11:29;;;;;;;62.30;37.60;;;;;;;16.65;41.62;99441.28;248540;1154;115372;-71
2021/03/26 15:16:39;;;;;;;58.03;37.08;;;;;;;16.51;41.72;99448.63;248462;1159;116618;-71
2021/03/26 15:22:11;;;;;;;58.65;36.25;;;;;;;16.37;41.89;99437.25;248693;1154;115389;-71
2021/03/26 15:27:32;;;;;;;55.40;33.90;;;;;;;16.22;41.92;99445.55;248393;1157;115082;-69
2021/03/26 15:32:51;;;;;;;53.35;33.78;;;;;;;16.08;41.96;99438.58;248664;1153;115316;-69
2021/03/26 15:38:03;;;;;;;53.98;34.13;;;;;;;15.98;42.22;99431.38;248426;1154;115364;-70
2021/03/26 15:43:31;;;;;;;;;;;;;;;15.91;42.31;99433.67;248422;1162;115533;-70
2021/03/26 15:48:53;;;;;;;68.48;32.78;;;;;;;15.82;42.14;99437.06;248712;1153;101085;-71
2021/03/26 15:54:23;;;;;;;59.80;34.10;;;;;;;15.73;42.21;99435.11;248607;1154;115620;-71
2021/03/26 16:00:11;;;;;;;59.08;33.20;;;;;;;15.65;42.36;99429.43;248562;1154;114820;-71
2021/03/26 16:06:29;;;;;;;48.98;32.00;;;;;;;15.53;42.35;99432.09;248187;1155;115136;-72
2021/03/26 16:12:09;;;;;;;60.73;33.73;;;;;;;15.43;42.45;99435.59;248488;1159;115631;-70
2021/03/26 16:17:46;;;;;;;55.33;32.93;;;;;;;15.31;42.45;99435.52;246811;1155;115308;-69
2021/03/26 16:23:52;;;;;;;58.78;32.70;;;;;;;15.19;42.85;99433.78;248465;1155;115480;-70
2021/03/26 16:29:30;;;;;;;50.93;30.05;;;;;;;15.06;42.91;99432.98;248407;1154;115410;-70
2021/03/26 16:35:08;;;;;;;51.58;31.20;;;;;;;14.89;43.34;99440.44;248633;1152;115013;-69
2021/03/26 16:40:44;;;;;;;55.43;32.15;;;;;;;14.74;43.42;99441.57;248538;1152;115443;-69
2021/03/26 16:46:29;;;;;;;;;;;;;;;14.59;43.55;99442.67;248638;1159;115409;-71
2021/03/26 16:52:54;;;;;;;50.85;29.73;;;;;;;14.44;43.40;99434.74;248098;1164;101357;-71
2021/03/26 16:59:12;;;;;;;;;;;;;;;;;;;;;
2021/03/26 17:05:07;;;;;;;;;;;;;;;;;;;;;
2021/03/26 17:11:20;;;;;;;49.50;30.15;;;;;;;14.01;43.71;99438.73;248521;1154;115413;-69
2021/03/26 17:17:28;;;;;;;54.03;30.00;;;;;;;13.86;43.63;99433.50;248493;1153;115100;-69
2021/03/26 17:23:14;;;;;;;49.60;30.10;;;;;;;13.79;44.00;99442.03;248599;1153;115639;-68
2021/03/26 17:29:19;;;;;;;;;;;;;;;;;;;;;
2021/03/26 17:35:17;;;;;;;51.75;29.63;;;;;;;13.54;44.42;99441.03;248575;1154;115964;-71
2021/03/26 17:41:26;;;;;;;51.78;29.50;;;;;;;13.36;44.23;99437.80;248344;1159;115287;-71
2021/03/26 17:47:04;;;;;;;58.15;29.63;;;;;;;13.23;44.47;99450.23;248584;1155;115264;-70
2021/03/26 17:53:27;;;;;;;56.50;31.28;;;;;;;13.10;44.56;99454.66;248503;1155;115824;-71
2021/03/26 17:58:48;;;;;;;52.95;30.45;;;;;;;12.96;44.28;99459.09;248490;1153;115085;-71
2021/03/26 18:04:50;;;;;;;57.33;31.37;;;;;;;12.85;44.76;99460.77;248443;1153;115002;-71
2021/03/26 18:10:09;;;;;;;53.68;32.28;;;;;;;12.76;44.62;99459.53;248117;1162;116065;-71
2021/03/26 18:15:55;;;;;;;;;;;;;;;;;;;;;
2021/03/26 18:21:25;;;;;;;58.13;33.85;;;;;;;12.57;45.07;99462.53;248624;1154;115458;-71
2021/03/26 18:26:55;;;;;;;56.05;34.10;;;;;;;12.48;44.88;99469.30;248471;1154;115952;-71
2021/03/26 18:32:23;;;;;;;68.80;35.83;;;;;;;12.38;45.42;99472.64;248501;1156;115335;-72
2021/03/26 18:38:18;;;;;;;65.53;37.53;;;;;;;12.26;44.94;99477.80;248446;1161;115511;-71
2021/03/26 18:43:55;;;;;;;67.15;36.18;;;;;;;12.18;45.34;99476.55;248435;1154;115307;-74
2021/03/26 18:49:33;;;;;;;68.28;37.58;;;;;;;12.09;45.27;99483.28;248428;1154;115096;-75
2021/03/26 18:54:55;;;;;;;68.08;38.13;;;;;;;12.00;45.08;99473.20;248608;1153;115674;-74
2021/03/26 19:00:29;;;;;;;69.25;37.28;;;;;;;11.94;45.83;99477.09;248409;1161;115080;-72
2021/03/26 19:05:44;;;;;;;78.08;41.98;;;;;;;11.88;45.95;99472.12;248476;1154;115104;-73
2021/03/26 19:11:08;;;;;;;78.33;44.88;;;;;;;11.86;45.94;99470.52;248443;1155;116551;-72
2021/03/26 19:16:32;;;;;;;81.93;41.70;;;;;;;11.79;46.06;99470.00;248574;1153;117050;-72
2021/03/26 19:21:53;;;;;;;75.93;42.63;;;;;;;11.71;46.27;99469.58;248511;1153;115509;-73
2021/03/26 19:27:54;;;;;;;73.48;41.28;;;;;;;11.63;46.20;99479.85;248576;1154;115153;-74
2021/03/26 19:33:18;;;;;;;77.93;43.45;;;;;;;11.48;46.48;99468.27;248169;1156;115345;-74
2021/03/26 19:39:14;;;;;;;79.08;43.30;;;;;;;11.41;46.37;99477.58;248439;1154;115698;-72
2021/03/26 19:44:41;;;;;;;79.55;43.78;;;;;;;11.33;46.81;99484.21;248552;1154;115162;-71
2021/03/26 19:50:16;;;;;;;81.45;43.70;;;;;;;11.27;46.62;99481.04;248503;1154;115383;-66
2021/03/26 19:55:25;;;;;;;79.38;44.60;;;;;;;11.16;47.20;99473.67;248411;1154;115053;-72
2021/03/26 20:00:53;;;;;;;82.72;45.85;;;;;;;11.11;47.33;99467.77;248422;1162;115041;-72
2021/03/26 20:06:11;;;;;;;81.93;46.85;;;;;;;11.07;47.10;99475.08;248565;1154;115171;-70
2021/03/26 20:11:31;;;;;;;89.67;49.53;;;;;;;11.05;47.29;99468.11;248452;1154;115541;-73
2021/03/26 20:16:56;;;;;;;90.78;51.60;;;;;;;11.02;47.94;99468.28;248939;1153;115646;-69
2021/03/26 20:22:32;;;;;;;89.40;49.83;;;;;;;11.02;47.65;99473.61;248555;1153;115461;-70
2021/03/26 20:27:44;;;;;;;93.60;51.63;;;;;;;10.99;47.62;99466.64;248556;1159;114792;-71
2021/03/26 20:33:05;;;;;;;92.13;51.35;;;;;;;10.96;48.09;99474.80;248038;1153;115236;-68
2021/03/26 20:38:23;;;;;;;93.10;51.60;;;;;;;10.94;48.16;99463.41;248698;1154;117472;-77
2021/03/26 20:43:56;;;;;;;94.63;52.08;;;;;;;10.95;48.56;99461.59;248594;1154;115080;-69
2021/03/26 20:49:11;;;;;;;97.08;52.83;;;;;;;10.91;48.10;99460.91;248660;1154;115361;-71
2021/03/26 20:54:41;;;;;;;93.58;54.25;;;;;;;10.89;47.90;99454.80;248589;1155;114672;-73
2021/03/26 21:00:12;;;;;;;98.93;53.60;;;;;;;10.85;48.55;99461.25;248753;1153;115106;-70
2021/03/26 21:05:36;;;;;;;96.68;52.75;;;;;;;10.78;48.54;99466.06;248538;1154;115228;-70
2021/03/26 21:11:06;;;;;;;94.78;54.60;;;;;;;10.70;48.13;99460.31;248587;1154;115188;-69
2021/03/26 21:16:12;;;;;;;99.48;54.23;;;;;;;10.61;48.23;99459.02;248572;1154;115579;-72
2021/03/26 21:22:04;;;;;;;101.78;56.30;;;;;;;10.53;48.24;99450.61;248655;1154;115548;-71
2021/03/26 21:27:24;;;;;;;102.53;55.08;;;;;;;10.46;48.49;99454.55;246532;1162;115166;-74
2021/03/26 21:32:56;;;;;;;104.73;56.77;;;;;;;10.40;48.61;99462.86;248565;1155;115239;-72
2021/03/26 21:38:24;;;;;;;;;;;;;;;10.36;48.31;99450.64;248527;1161;115697;-70
2021/03/26 21:44:08;;;;;;;101.08;54.53;;;;;;;10.30;48.88;99445.68;248659;1154;101888;-72
2021/03/26 21:50:01;;;;;;;104.50;56.28;;;;;;;10.23;48.55;99439.80;248483;1162;114854;-74
2021/03/26 21:56:06;;;;;;;95.55;54.25;;;;;;;10.10;48.98;99442.25;248402;1162;115302;-74
2021/03/26 22:01:54;;;;;;;110.40;56.48;;;;;;;10.02;48.88;99441.81;248363;1152;119544;-74
2021/03/26 22:07:28;;;;;;;105.03;57.98;;;;;;;9.96;49.02;99450.11;248377;1155;115729;-75
2021/03/26 22:13:17;;;;;;;103.63;56.28;;;;;;;9.86;49.03;99448.88;248594;1155;115581;-73
2021/03/26 22:18:35;;;;;;;106.35;57.28;;;;;;;9.76;49.35;99447.64;248362;1162;115435;-74
2021/03/26 22:23:39;;;;;;;100.90;55.88;;;;;;;9.67;49.60;99440.99;248441;1155;115390;-75
2021/03/26 22:28:51;;;;;;;;;;;;;;;9.60;49.37;99442.25;248588;1162;115416;-83
2021/03/26 22:34:06;;;;;;;99.05;54.90;;;;;;;9.46;49.39;99446.47;248662;1154;101926;-85
2021/03/26 22:39:35;;;;;;;101.35;55.88;;;;;;;9.39;49.63;99445.06;248627;1154;114903;-71
2021/03/26 22:45:01;;;;;;;115.40;58.75;;;;;;;9.32;50.03;99442.80;248664;1153;114878;-78
2021/03/26 22:50:34;;;;;;;105.33;57.55;;;;;;;9.20;50.02;99431.88;248521;1155;115230;-73
2021/03/26 22:55:54;;;;;;;109.90;58.30;;;;;;;9.11;50.01;99429.67;248578;1154;114888;-73
2021/03/26 23:01:05;;;;;;;102.08;57.10;;;;;;;9.03;50.48;99437.13;248628;1154;114947;-70
2021/03/26 23:06:09;;;;;;;107.63;58.20;;;;;;;8.91;50.55;99433.30;248625;1153;115525;-70
2021/03/26 23:11:21;;;;;;;109.80;56.38;;;;;;;8.80;50.62;99427.67;248436;1139;114882;-85
2021/03/26 23:16:40;;;;;;;105.65;56.25;;;;;;;8.69;51.16;99427.30;248550;1162;115035;-85
2021/03/26 23:21:59;;;;;;;99.80;55.28;;;;;;;8.58;50.72;99433.13;248629;1154;114876;-85
2021/03/26 23:27:09;;;;;;;109.35;57.70;;;;;;;8.47;51.19;99425.68;248687;1154;115160;-85
2021/03/26 23:32:21;;;;;;;106.33;57.55;;;;;;;8.38;51.47;99420.80;248615;1154;114954;-86
2021/03/26 23:37:32;;;;;;;100.60;55.68;;;;;;;8.29;51.81;99427.38;248605;1161;114818;-85
2021/03/26 23:43:06;;;;;;;105.65;58.08;;;;;;;8.25;52.17;99417.86;248727;1154;115382;-78
2021/03/26 23:48:17;;;;;;;99.68;55.38;;;;;;;8.18;52.22;99423.48;248559;1162;114512;-78
2021/03/26 23:53:29;;;;;;;113.98;56.35;;;;;;;8.09;52.04;99415.98;248506;1154;114676;-78
2021/03/26 23:59:04;;;;;;;109.75;56.90;;;;;;;7.98;52.41;99419.98;248565;1154;115017;-78
